sensor_id;sensor_type;location;lat;lon;timestamp;P1;durP1;ratioP1;P2;durP2;ratioP2
70320;SDS011;61127;55.826;37.046;2022-07-22T00:01:59;2.95;;;2.10;;
70320;SDS011;61127;55.826;37.046;2022-07-22T00:04:25;2.80;;;2.00;;
70320;SDS011;61127;55.826;37.046;2022-07-22T00:06:51;3.80;;;1.98;;
70320;SDS011;61127;55.826;37.046;2022-07-22T00:09:17;3.47;;;1.70;;
70320;SDS011;61127;55.826;37.046;2022-07-22T00:11:43;3.03;;;1.95;;
70320;SDS011;61127;55.826;37.046;2022-07-22T00:14:10;3.40;;;2.00;;
70320;SDS011;61127;55.826;37.046;2022-07-22T00:16:38;2.58;;;1.90;;
70320;SDS011;61127;55.826;37.046;2022-07-22T00:19:04;3.10;;;2.00;;
70320;SDS011;61127;55.826;37.046;2022-07-22T00:21:30;3.13;;;2.05;;
70320;SDS011;61127;55.826;37.046;2022-07-22T00:23:57;2.88;;;2.25;;
70320;SDS011;61127;55.826;37.046;2022-07-22T00:26:23;3.00;;;1.95;;
70320;SDS011;61127;55.826;37.046;2022-07-22T00:28:49;3.27;;;1.90;;
70320;SDS011;61127;55.826;37.046;2022-07-22T00:31:15;3.13;;;2.17;;
70320;SDS011;61127;55.826;37.046;2022-07-22T00:33:43;3.05;;;2.22;;
70320;SDS011;61127;55.826;37.046;2022-07-22T00:36:09;4.40;;;2.20;;
70320;SDS011;61127;55.826;37.046;2022-07-22T00:38:37;5.83;;;2.37;;
70320;SDS011;61127;55.826;37.046;2022-07-22T00:41:04;3.75;;;2.13;;
70320;SDS011;61127;55.826;37.046;2022-07-22T00:44:16;3.60;;;2.10;;
70320;SDS011;61127;55.826;37.046;2022-07-22T00:46:26;2.90;;;2.17;;
70320;SDS011;61127;55.826;37.046;2022-07-22T00:48:52;2.70;;;2.10;;
70320;SDS011;61127;55.826;37.046;2022-07-22T00:51:20;3.43;;;2.03;;
70320;SDS011;61127;55.826;37.046;2022-07-22T00:53:48;4.85;;;2.22;;
70320;SDS011;61127;55.826;37.046;2022-07-22T00:56:16;3.25;;;2.50;;
70320;SDS011;61127;55.826;37.046;2022-07-22T00:58:43;3.83;;;2.40;;
70320;SDS011;61127;55.826;37.046;2022-07-22T01:01:11;4.65;;;2.40;;
70320;SDS011;61127;55.826;37.046;2022-07-22T01:03:39;2.77;;;2.20;;
70320;SDS011;61127;55.826;37.046;2022-07-22T01:06:05;4.97;;;2.70;;
70320;SDS011;61127;55.826;37.046;2022-07-22T01:08:32;3.45;;;2.55;;
70320;SDS011;61127;55.826;37.046;2022-07-22T01:11:09;3.53;;;2.50;;
70320;SDS011;61127;55.826;37.046;2022-07-22T01:13:37;4.68;;;2.30;;
70320;SDS011;61127;55.826;37.046;2022-07-22T01:16:04;5.70;;;2.40;;
70320;SDS011;61127;55.826;37.046;2022-07-22T01:18:32;3.58;;;2.35;;
70320;SDS011;61127;55.826;37.046;2022-07-22T01:20:58;2.58;;;2.20;;
70320;SDS011;61127;55.826;37.046;2022-07-22T01:23:26;4.75;;;2.42;;
70320;SDS011;61127;55.826;37.046;2022-07-22T01:25:52;3.20;;;2.40;;
70320;SDS011;61127;55.826;37.046;2022-07-22T01:28:18;3.23;;;2.50;;
70320;SDS011;61127;55.826;37.046;2022-07-22T01:30:45;4.38;;;2.47;;
70320;SDS011;61127;55.826;37.046;2022-07-22T01:33:11;3.50;;;2.50;;
70320;SDS011;61127;55.826;37.046;2022-07-22T01:35:38;4.47;;;2.20;;
70320;SDS011;61127;55.826;37.046;2022-07-22T01:38:03;4.73;;;2.50;;
70320;SDS011;61127;55.826;37.046;2022-07-22T01:40:32;4.97;;;2.45;;
70320;SDS011;61127;55.826;37.046;2022-07-22T01:42:59;3.10;;;2.35;;
70320;SDS011;61127;55.826;37.046;2022-07-22T01:45:25;8.73;;;2.58;;
70320;SDS011;61127;55.826;37.046;2022-07-22T01:47:51;4.32;;;2.50;;
70320;SDS011;61127;55.826;37.046;2022-07-22T01:50:17;6.80;;;2.50;;
70320;SDS011;61127;55.826;37.046;2022-07-22T01:52:43;3.95;;;2.33;;
70320;SDS011;61127;55.826;37.046;2022-07-22T01:55:09;4.22;;;2.40;;
70320;SDS011;61127;55.826;37.046;2022-07-22T01:57:37;5.53;;;2.05;;
70320;SDS011;61127;55.826;37.046;2022-07-22T02:00:14;3.90;;;2.20;;
70320;SDS011;61127;55.826;37.046;2022-07-22T02:02:47;3.43;;;2.57;;
70320;SDS011;61127;55.826;37.046;2022-07-22T02:05:14;3.60;;;2.35;;
70320;SDS011;61127;55.826;37.046;2022-07-22T02:07:41;3.17;;;2.33;;
70320;SDS011;61127;55.826;37.046;2022-07-22T02:10:07;7.65;;;2.40;;
70320;SDS011;61127;55.826;37.046;2022-07-22T02:12:35;4.55;;;2.38;;
70320;SDS011;61127;55.826;37.046;2022-07-22T02:15:23;3.40;;;2.40;;
70320;SDS011;61127;55.826;37.046;2022-07-22T02:17:49;5.25;;;2.45;;
70320;SDS011;61127;55.826;37.046;2022-07-22T02:20:15;6.13;;;2.38;;
70320;SDS011;61127;55.826;37.046;2022-07-22T02:22:42;2.78;;;2.10;;
70320;SDS011;61127;55.826;37.046;2022-07-22T02:25:09;3.80;;;2.30;;
70320;SDS011;61127;55.826;37.046;2022-07-22T02:27:36;4.13;;;2.10;;
70320;SDS011;61127;55.826;37.046;2022-07-22T02:30:04;2.60;;;2.15;;
70320;SDS011;61127;55.826;37.046;2022-07-22T02:32:31;2.80;;;2.17;;
70320;SDS011;61127;55.826;37.046;2022-07-22T02:34:57;5.60;;;2.30;;
70320;SDS011;61127;55.826;37.046;2022-07-22T02:37:24;4.82;;;2.20;;
70320;SDS011;61127;55.826;37.046;2022-07-22T02:39:51;3.17;;;2.00;;
70320;SDS011;61127;55.826;37.046;2022-07-22T02:42:17;2.63;;;2.00;;
70320;SDS011;61127;55.826;37.046;2022-07-22T02:44:47;5.57;;;2.20;;
70320;SDS011;61127;55.826;37.046;2022-07-22T02:47:13;4.18;;;2.50;;
70320;SDS011;61127;55.826;37.046;2022-07-22T02:49:39;3.05;;;2.30;;
70320;SDS011;61127;55.826;37.046;2022-07-22T02:52:24;2.97;;;2.10;;
70320;SDS011;61127;55.826;37.046;2022-07-22T02:54:51;3.70;;;2.10;;
70320;SDS011;61127;55.826;37.046;2022-07-22T02:57:17;4.20;;;2.30;;
70320;SDS011;61127;55.826;37.046;2022-07-22T02:59:43;4.82;;;2.60;;
70320;SDS011;61127;55.826;37.046;2022-07-22T03:02:10;2.63;;;2.20;;
70320;SDS011;61127;55.826;37.046;2022-07-22T03:04:37;3.53;;;2.10;;
70320;SDS011;61127;55.826;37.046;2022-07-22T03:07:06;3.33;;;2.20;;
70320;SDS011;61127;55.826;37.046;2022-07-22T03:09:32;3.47;;;2.17;;
70320;SDS011;61127;55.826;37.046;2022-07-22T03:11:58;4.40;;;2.20;;
70320;SDS011;61127;55.826;37.046;2022-07-22T03:14:24;3.15;;;1.88;;
70320;SDS011;61127;55.826;37.046;2022-07-22T03:16:50;3.97;;;2.20;;
70320;SDS011;61127;55.826;37.046;2022-07-22T03:19:17;2.17;;;1.90;;
70320;SDS011;61127;55.826;37.046;2022-07-22T03:21:47;5.65;;;2.10;;
70320;SDS011;61127;55.826;37.046;2022-07-22T03:24:21;3.83;;;1.90;;
70320;SDS011;61127;55.826;37.046;2022-07-22T03:26:47;4.70;;;2.00;;
70320;SDS011;61127;55.826;37.046;2022-07-22T03:29:14;3.22;;;2.00;;
70320;SDS011;61127;55.826;37.046;2022-07-22T03:31:39;2.35;;;1.83;;
70320;SDS011;61127;55.826;37.046;2022-07-22T03:34:08;2.42;;;1.70;;
70320;SDS011;61127;55.826;37.046;2022-07-22T03:36:38;2.67;;;1.70;;
70320;SDS011;61127;55.826;37.046;2022-07-22T03:39:04;1.90;;;1.70;;
70320;SDS011;61127;55.826;37.046;2022-07-22T03:41:30;3.30;;;1.98;;
70320;SDS011;61127;55.826;37.046;2022-07-22T03:43:56;2.20;;;1.75;;
70320;SDS011;61127;55.826;37.046;2022-07-22T03:46:23;3.07;;;1.87;;
70320;SDS011;61127;55.826;37.046;2022-07-22T03:48:49;1.70;;;1.60;;
70320;SDS011;61127;55.826;37.046;2022-07-22T03:51:15;2.10;;;1.70;;
70320;SDS011;61127;55.826;37.046;2022-07-22T03:53:46;1.90;;;1.60;;
70320;SDS011;61127;55.826;37.046;2022-07-22T03:56:12;4.70;;;1.70;;
70320;SDS011;61127;55.826;37.046;2022-07-22T03:58:38;2.97;;;2.10;;
70320;SDS011;61127;55.826;37.046;2022-07-22T04:01:05;4.18;;;1.73;;
70320;SDS011;61127;55.826;37.046;2022-07-22T04:03:32;1.80;;;1.50;;
70320;SDS011;61127;55.826;37.046;2022-07-22T04:06:06;3.08;;;1.40;;
70320;SDS011;61127;55.826;37.046;2022-07-22T04:08:40;3.50;;;1.73;;
70320;SDS011;61127;55.826;37.046;2022-07-22T04:11:07;3.25;;;1.90;;
70320;SDS011;61127;55.826;37.046;2022-07-22T04:13:35;2.22;;;1.65;;
70320;SDS011;61127;55.826;37.046;2022-07-22T04:16:02;5.63;;;1.70;;
70320;SDS011;61127;55.826;37.046;2022-07-22T04:18:29;2.45;;;1.70;;
70320;SDS011;61127;55.826;37.046;2022-07-22T04:20:57;2.43;;;1.70;;
70320;SDS011;61127;55.826;37.046;2022-07-22T04:23:58;1.92;;;1.40;;
70320;SDS011;61127;55.826;37.046;2022-07-22T04:26:28;3.58;;;1.67;;
70320;SDS011;61127;55.826;37.046;2022-07-22T04:28:54;4.80;;;1.63;;
70320;SDS011;61127;55.826;37.046;2022-07-22T04:31:21;2.60;;;1.70;;
70320;SDS011;61127;55.826;37.046;2022-07-22T04:33:54;3.20;;;1.80;;
70320;SDS011;61127;55.826;37.046;2022-07-22T04:36:20;2.50;;;1.73;;
70320;SDS011;61127;55.826;37.046;2022-07-22T04:38:47;5.13;;;1.70;;
70320;SDS011;61127;55.826;37.046;2022-07-22T04:41:13;3.35;;;1.83;;
70320;SDS011;61127;55.826;37.046;2022-07-22T04:43:39;3.65;;;1.80;;
70320;SDS011;61127;55.826;37.046;2022-07-22T04:46:06;2.67;;;1.90;;
70320;SDS011;61127;55.826;37.046;2022-07-22T04:48:36;3.03;;;1.65;;
70320;SDS011;61127;55.826;37.046;2022-07-22T04:51:02;2.92;;;1.70;;
70320;SDS011;61127;55.826;37.046;2022-07-22T04:53:31;4.00;;;1.60;;
70320;SDS011;61127;55.826;37.046;2022-07-22T04:55:58;1.80;;;1.50;;
70320;SDS011;61127;55.826;37.046;2022-07-22T04:58:24;3.27;;;1.40;;
70320;SDS011;61127;55.826;37.046;2022-07-22T05:00:51;5.10;;;1.50;;
70320;SDS011;61127;55.826;37.046;2022-07-22T05:03:18;2.65;;;1.50;;
70320;SDS011;61127;55.826;37.046;2022-07-22T05:05:45;2.28;;;1.52;;
70320;SDS011;61127;55.826;37.046;2022-07-22T05:08:16;3.30;;;1.60;;
70320;SDS011;61127;55.826;37.046;2022-07-22T05:10:42;3.40;;;1.50;;
70320;SDS011;61127;55.826;37.046;2022-07-22T05:13:09;2.58;;;1.33;;
70320;SDS011;61127;55.826;37.046;2022-07-22T05:15:37;2.90;;;1.48;;
70320;SDS011;61127;55.826;37.046;2022-07-22T05:18:03;5.93;;;1.60;;
70320;SDS011;61127;55.826;37.046;2022-07-22T05:20:32;4.70;;;1.33;;
70320;SDS011;61127;55.826;37.046;2022-07-22T05:22:59;4.57;;;1.45;;
70320;SDS011;61127;55.826;37.046;2022-07-22T05:25:28;2.35;;;1.35;;
70320;SDS011;61127;55.826;37.046;2022-07-22T05:27:54;4.25;;;1.50;;
70320;SDS011;61127;55.826;37.046;2022-07-22T05:30:32;2.23;;;1.47;;
70320;SDS011;61127;55.826;37.046;2022-07-22T05:33:02;2.00;;;1.25;;
70320;SDS011;61127;55.826;37.046;2022-07-22T05:35:49;2.83;;;1.60;;
70320;SDS011;61127;55.826;37.046;2022-07-22T05:38:15;1.63;;;1.30;;
70320;SDS011;61127;55.826;37.046;2022-07-22T05:40:41;3.33;;;1.27;;
70320;SDS011;61127;55.826;37.046;2022-07-22T05:43:12;3.03;;;1.40;;
70320;SDS011;61127;55.826;37.046;2022-07-22T05:45:38;5.05;;;1.35;;
70320;SDS011;61127;55.826;37.046;2022-07-22T05:48:04;5.18;;;1.40;;
70320;SDS011;61127;55.826;37.046;2022-07-22T05:50:32;3.78;;;1.50;;
70320;SDS011;61127;55.826;37.046;2022-07-22T05:53:00;1.40;;;1.20;;
70320;SDS011;61127;55.826;37.046;2022-07-22T05:55:25;5.22;;;1.60;;
70320;SDS011;61127;55.826;37.046;2022-07-22T05:57:52;1.85;;;1.60;;
70320;SDS011;61127;55.826;37.046;2022-07-22T06:00:18;1.40;;;1.25;;
70320;SDS011;61127;55.826;37.046;2022-07-22T06:02:45;1.95;;;1.27;;
70320;SDS011;61127;55.826;37.046;2022-07-22T06:05:16;3.00;;;1.40;;
70320;SDS011;61127;55.826;37.046;2022-07-22T06:07:43;3.50;;;1.35;;
70320;SDS011;61127;55.826;37.046;2022-07-22T06:10:11;1.75;;;1.30;;
70320;SDS011;61127;55.826;37.046;2022-07-22T06:12:39;2.25;;;1.30;;
70320;SDS011;61127;55.826;37.046;2022-07-22T06:15:06;4.53;;;1.58;;
70320;SDS011;61127;55.826;37.046;2022-07-22T06:17:33;1.57;;;1.23;;
70320;SDS011;61127;55.826;37.046;2022-07-22T06:20:01;1.83;;;1.35;;
70320;SDS011;61127;55.826;37.046;2022-07-22T06:22:31;1.45;;;1.30;;
70320;SDS011;61127;55.826;37.046;2022-07-22T06:24:57;1.30;;;1.20;;
70320;SDS011;61127;55.826;37.046;2022-07-22T06:27:23;3.47;;;1.70;;
70320;SDS011;61127;55.826;37.046;2022-07-22T06:29:51;6.77;;;1.50;;
70320;SDS011;61127;55.826;37.046;2022-07-22T06:32:18;2.55;;;1.30;;
70320;SDS011;61127;55.826;37.046;2022-07-22T06:34:44;3.15;;;1.50;;
70320;SDS011;61127;55.826;37.046;2022-07-22T06:37:11;3.53;;;1.40;;
70320;SDS011;61127;55.826;37.046;2022-07-22T06:39:37;4.53;;;1.40;;
70320;SDS011;61127;55.826;37.046;2022-07-22T06:42:15;4.30;;;1.70;;
70320;SDS011;61127;55.826;37.046;2022-07-22T06:45:01;3.05;;;1.35;;
70320;SDS011;61127;55.826;37.046;2022-07-22T06:47:40;3.58;;;1.50;;
70320;SDS011;61127;55.826;37.046;2022-07-22T06:50:09;2.03;;;1.30;;
70320;SDS011;61127;55.826;37.046;2022-07-22T06:52:45;3.55;;;1.45;;
70320;SDS011;61127;55.826;37.046;2022-07-22T06:55:12;1.90;;;1.27;;
70320;SDS011;61127;55.826;37.046;2022-07-22T06:57:43;3.67;;;1.40;;
70320;SDS011;61127;55.826;37.046;2022-07-22T07:00:10;4.55;;;1.85;;
70320;SDS011;61127;55.826;37.046;2022-07-22T07:03:00;4.25;;;2.08;;
70320;SDS011;61127;55.826;37.046;2022-07-22T07:05:27;1.65;;;1.30;;
70320;SDS011;61127;55.826;37.046;2022-07-22T07:07:55;6.57;;;1.93;;
70320;SDS011;61127;55.826;37.046;2022-07-22T07:10:22;4.50;;;1.40;;
70320;SDS011;61127;55.826;37.046;2022-07-22T07:13:01;2.35;;;1.50;;
70320;SDS011;61127;55.826;37.046;2022-07-22T07:15:41;5.22;;;1.42;;
70320;SDS011;61127;55.826;37.046;2022-07-22T07:18:08;3.45;;;1.50;;
70320;SDS011;61127;55.826;37.046;2022-07-22T07:20:35;1.87;;;1.40;;
70320;SDS011;61127;55.826;37.046;2022-07-22T07:23:04;2.65;;;1.13;;
70320;SDS011;61127;55.826;37.046;2022-07-22T07:25:34;1.70;;;1.23;;
70320;SDS011;61127;55.826;37.046;2022-07-22T07:28:00;1.60;;;1.33;;
70320;SDS011;61127;55.826;37.046;2022-07-22T07:30:44;1.63;;;1.33;;
70320;SDS011;61127;55.826;37.046;2022-07-22T07:33:10;6.93;;;1.50;;
70320;SDS011;61127;55.826;37.046;2022-07-22T07:35:37;3.72;;;1.42;;
70320;SDS011;61127;55.826;37.046;2022-07-22T07:38:03;1.38;;;1.10;;
70320;SDS011;61127;55.826;37.046;2022-07-22T07:40:31;3.03;;;1.30;;
70320;SDS011;61127;55.826;37.046;2022-07-22T07:42:58;3.80;;;1.40;;
70320;SDS011;61127;55.826;37.046;2022-07-22T07:45:24;2.43;;;1.50;;
70320;SDS011;61127;55.826;37.046;2022-07-22T07:47:51;1.80;;;1.40;;
70320;SDS011;61127;55.826;37.046;2022-07-22T07:50:17;1.75;;;1.33;;
70320;SDS011;61127;55.826;37.046;2022-07-22T07:52:44;5.18;;;1.50;;
70320;SDS011;61127;55.826;37.046;2022-07-22T07:55:14;4.68;;;1.30;;
70320;SDS011;61127;55.826;37.046;2022-07-22T07:57:42;2.27;;;1.20;;
70320;SDS011;61127;55.826;37.046;2022-07-22T08:00:13;2.75;;;1.50;;
70320;SDS011;61127;55.826;37.046;2022-07-22T08:02:41;1.92;;;1.38;;
70320;SDS011;61127;55.826;37.046;2022-07-22T08:05:11;2.95;;;1.38;;
70320;SDS011;61127;55.826;37.046;2022-07-22T08:07:37;1.60;;;1.40;;
70320;SDS011;61127;55.826;37.046;2022-07-22T08:10:04;4.33;;;1.23;;
70320;SDS011;61127;55.826;37.046;2022-07-22T08:12:49;2.70;;;1.40;;
70320;SDS011;61127;55.826;37.046;2022-07-22T08:15:51;2.33;;;1.60;;
70320;SDS011;61127;55.826;37.046;2022-07-22T08:18:20;2.28;;;1.30;;
70320;SDS011;61127;55.826;37.046;2022-07-22T08:20:47;3.83;;;1.30;;
70320;SDS011;61127;55.826;37.046;2022-07-22T08:23:14;2.17;;;1.30;;
70320;SDS011;61127;55.826;37.046;2022-07-22T08:25:42;3.70;;;1.25;;
70320;SDS011;61127;55.826;37.046;2022-07-22T08:28:09;6.10;;;1.20;;
70320;SDS011;61127;55.826;37.046;2022-07-22T08:30:35;4.70;;;1.50;;
70320;SDS011;61127;55.826;37.046;2022-07-22T08:33:03;3.55;;;1.40;;
70320;SDS011;61127;55.826;37.046;2022-07-22T08:35:29;4.30;;;1.57;;
70320;SDS011;61127;55.826;37.046;2022-07-22T08:37:55;5.43;;;1.55;;
70320;SDS011;61127;55.826;37.046;2022-07-22T08:40:22;4.50;;;1.70;;
70320;SDS011;61127;55.826;37.046;2022-07-22T08:42:50;3.95;;;1.40;;
70320;SDS011;61127;55.826;37.046;2022-07-22T08:45:17;3.20;;;1.30;;
70320;SDS011;61127;55.826;37.046;2022-07-22T08:47:47;3.90;;;1.60;;
70320;SDS011;61127;55.826;37.046;2022-07-22T08:50:32;3.80;;;1.30;;
70320;SDS011;61127;55.826;37.046;2022-07-22T08:53:10;2.88;;;1.35;;
70320;SDS011;61127;55.826;37.046;2022-07-22T08:55:42;3.40;;;1.60;;
70320;SDS011;61127;55.826;37.046;2022-07-22T08:58:10;2.72;;;1.60;;
70320;SDS011;61127;55.826;37.046;2022-07-22T09:00:38;3.90;;;1.20;;
70320;SDS011;61127;55.826;37.046;2022-07-22T09:03:22;2.85;;;1.55;;
70320;SDS011;61127;55.826;37.046;2022-07-22T09:05:56;5.43;;;1.35;;
70320;SDS011;61127;55.826;37.046;2022-07-22T09:08:22;4.63;;;1.30;;
70320;SDS011;61127;55.826;37.046;2022-07-22T09:11:17;3.78;;;1.50;;
70320;SDS011;61127;55.826;37.046;2022-07-22T09:14:02;4.30;;;1.60;;
70320;SDS011;61127;55.826;37.046;2022-07-22T09:17:00;2.38;;;1.70;;
70320;SDS011;61127;55.826;37.046;2022-07-22T09:19:33;2.60;;;1.52;;
70320;SDS011;61127;55.826;37.046;2022-07-22T09:22:32;3.60;;;1.60;;
70320;SDS011;61127;55.826;37.046;2022-07-22T09:25:32;2.72;;;1.75;;
70320;SDS011;61127;55.826;37.046;2022-07-22T09:28:21;2.67;;;1.67;;
70320;SDS011;61127;55.826;37.046;2022-07-22T09:31:08;3.80;;;1.70;;
70320;SDS011;61127;55.826;37.046;2022-07-22T09:33:51;2.92;;;1.88;;
70320;SDS011;61127;55.826;37.046;2022-07-22T09:36:25;2.00;;;1.67;;
70320;SDS011;61127;55.826;37.046;2022-07-22T09:38:53;3.85;;;1.88;;
70320;SDS011;61127;55.826;37.046;2022-07-22T09:41:20;2.87;;;1.90;;
70320;SDS011;61127;55.826;37.046;2022-07-22T09:43:49;3.50;;;2.10;;
70320;SDS011;61127;55.826;37.046;2022-07-22T09:46:15;2.38;;;1.80;;
70320;SDS011;61127;55.826;37.046;2022-07-22T09:49:00;4.90;;;2.00;;
70320;SDS011;61127;55.826;37.046;2022-07-22T09:51:35;3.60;;;1.30;;
70320;SDS011;61127;55.826;37.046;2022-07-22T09:54:09;4.73;;;2.13;;
70320;SDS011;61127;55.826;37.046;2022-07-22T09:56:38;3.28;;;1.40;;
70320;SDS011;61127;55.826;37.046;2022-07-22T09:59:04;4.15;;;1.83;;
70320;SDS011;61127;55.826;37.046;2022-07-22T10:01:35;2.35;;;1.95;;
70320;SDS011;61127;55.826;37.046;2022-07-22T10:04:05;5.63;;;2.00;;
70320;SDS011;61127;55.826;37.046;2022-07-22T10:06:33;2.50;;;1.93;;
70320;SDS011;61127;55.826;37.046;2022-07-22T10:09:05;2.05;;;1.85;;
70320;SDS011;61127;55.826;37.046;2022-07-22T10:11:36;5.03;;;1.92;;
70320;SDS011;61127;55.826;37.046;2022-07-22T10:14:03;2.10;;;1.77;;
70320;SDS011;61127;55.826;37.046;2022-07-22T10:16:29;1.92;;;1.40;;
70320;SDS011;61127;55.826;37.046;2022-07-22T10:18:56;5.20;;;1.50;;
70320;SDS011;61127;55.826;37.046;2022-07-22T10:21:32;4.10;;;1.60;;
70320;SDS011;61127;55.826;37.046;2022-07-22T10:27:09;5.63;;;2.13;;
70320;SDS011;61127;55.826;37.046;2022-07-22T10:29:39;2.50;;;2.28;;
70320;SDS011;61127;55.826;37.046;2022-07-22T10:35:28;3.55;;;1.90;;
70320;SDS011;61127;55.826;37.046;2022-07-22T10:40:19;2.65;;;1.40;;
70320;SDS011;61127;55.826;37.046;2022-07-22T10:45:23;1.80;;;1.70;;
70320;SDS011;61127;55.826;37.046;2022-07-22T10:53:02;2.80;;;1.63;;
70320;SDS011;61127;55.826;37.046;2022-07-22T10:55:35;2.13;;;1.80;;
70320;SDS011;61127;55.826;37.046;2022-07-22T11:00:59;3.65;;;1.50;;
70320;SDS011;61127;55.826;37.046;2022-07-22T11:03:30;2.92;;;1.67;;
70320;SDS011;61127;55.826;37.046;2022-07-22T11:06:20;3.08;;;2.13;;
70320;SDS011;61127;55.826;37.046;2022-07-22T11:09:00;4.10;;;2.55;;
70320;SDS011;61127;55.826;37.046;2022-07-22T11:11:31;3.00;;;2.70;;
70320;SDS011;61127;55.826;37.046;2022-07-22T11:13:58;4.10;;;1.63;;
70320;SDS011;61127;55.826;37.046;2022-07-22T11:16:25;3.92;;;1.60;;
70320;SDS011;61127;55.826;37.046;2022-07-22T11:19:00;4.72;;;1.60;;
70320;SDS011;61127;55.826;37.046;2022-07-22T11:21:29;1.98;;;1.60;;
70320;SDS011;61127;55.826;37.046;2022-07-22T11:23:59;2.43;;;1.60;;
70320;SDS011;61127;55.826;37.046;2022-07-22T11:26:41;3.22;;;2.00;;
70320;SDS011;61127;55.826;37.046;2022-07-22T11:29:48;3.50;;;2.53;;
70320;SDS011;61127;55.826;37.046;2022-07-22T11:32:08;3.13;;;1.90;;
70320;SDS011;61127;55.826;37.046;2022-07-22T11:34:36;4.85;;;2.00;;
70320;SDS011;61127;55.826;37.046;2022-07-22T11:37:03;3.67;;;2.43;;
70320;SDS011;61127;55.826;37.046;2022-07-22T11:39:29;2.88;;;1.95;;
70320;SDS011;61127;55.826;37.046;2022-07-22T11:41:57;3.58;;;2.05;;
70320;SDS011;61127;55.826;37.046;2022-07-22T11:44:26;3.83;;;2.30;;
70320;SDS011;61127;55.826;37.046;2022-07-22T11:46:54;3.40;;;2.67;;
70320;SDS011;61127;55.826;37.046;2022-07-22T11:49:25;3.22;;;2.80;;
70320;SDS011;61127;55.826;37.046;2022-07-22T11:51:53;4.13;;;3.20;;
70320;SDS011;61127;55.826;37.046;2022-07-22T11:54:21;3.78;;;2.67;;
70320;SDS011;61127;55.826;37.046;2022-07-22T11:56:48;4.68;;;3.00;;
70320;SDS011;61127;55.826;37.046;2022-07-22T11:59:15;5.37;;;2.90;;
70320;SDS011;61127;55.826;37.046;2022-07-22T12:01:43;4.18;;;3.10;;
70320;SDS011;61127;55.826;37.046;2022-07-22T12:04:16;3.70;;;3.30;;
70320;SDS011;61127;55.826;37.046;2022-07-22T12:06:45;4.82;;;2.60;;
70320;SDS011;61127;55.826;37.046;2022-07-22T12:09:13;3.15;;;2.85;;
70320;SDS011;61127;55.826;37.046;2022-07-22T12:11:59;4.23;;;3.23;;
70320;SDS011;61127;55.826;37.046;2022-07-22T12:14:29;3.70;;;3.28;;
70320;SDS011;61127;55.826;37.046;2022-07-22T12:16:58;3.55;;;3.25;;
70320;SDS011;61127;55.826;37.046;2022-07-22T12:19:24;3.50;;;3.20;;
70320;SDS011;61127;55.826;37.046;2022-07-22T12:22:40;4.40;;;3.42;;
70320;SDS011;61127;55.826;37.046;2022-07-22T12:24:46;6.07;;;3.57;;
70320;SDS011;61127;55.826;37.046;2022-07-22T12:27:23;3.03;;;2.78;;
70320;SDS011;61127;55.826;37.046;2022-07-22T12:29:49;3.45;;;3.15;;
70320;SDS011;61127;55.826;37.046;2022-07-22T12:37:21;3.47;;;3.17;;
70320;SDS011;61127;55.826;37.046;2022-07-22T12:43:01;3.80;;;3.50;;
70320;SDS011;61127;55.826;37.046;2022-07-22T12:45:35;6.88;;;3.50;;
70320;SDS011;61127;55.826;37.046;2022-07-22T12:53:29;6.13;;;3.88;;
70320;SDS011;61127;55.826;37.046;2022-07-22T12:55:58;3.78;;;3.47;;
70320;SDS011;61127;55.826;37.046;2022-07-22T12:58:30;4.95;;;3.85;;
70320;SDS011;61127;55.826;37.046;2022-07-22T13:00:58;4.82;;;3.85;;
70320;SDS011;61127;55.826;37.046;2022-07-22T13:03:26;3.95;;;3.42;;
70320;SDS011;61127;55.826;37.046;2022-07-22T13:05:56;3.60;;;3.20;;
70320;SDS011;61127;55.826;37.046;2022-07-22T13:08:24;3.63;;;3.33;;
70320;SDS011;61127;55.826;37.046;2022-07-22T13:10:52;3.55;;;3.00;;
70320;SDS011;61127;55.826;37.046;2022-07-22T13:13:20;4.40;;;3.30;;
70320;SDS011;61127;55.826;37.046;2022-07-22T13:15:46;5.03;;;3.30;;
70320;SDS011;61127;55.826;37.046;2022-07-22T13:18:14;3.58;;;3.28;;
70320;SDS011;61127;55.826;37.046;2022-07-22T13:20:40;3.70;;;3.40;;
70320;SDS011;61127;55.826;37.046;2022-07-22T13:23:06;4.28;;;2.92;;
70320;SDS011;61127;55.826;37.046;2022-07-22T13:25:32;4.70;;;2.95;;
70320;SDS011;61127;55.826;37.046;2022-07-22T13:27:59;3.78;;;3.03;;
70320;SDS011;61127;55.826;37.046;2022-07-22T13:30:25;5.55;;;1.98;;
70320;SDS011;61127;55.826;37.046;2022-07-22T13:32:51;4.05;;;2.45;;
70320;SDS011;61127;55.826;37.046;2022-07-22T13:35:19;3.97;;;2.70;;
70320;SDS011;61127;55.826;37.046;2022-07-22T13:37:45;2.78;;;2.55;;
70320;SDS011;61127;55.826;37.046;2022-07-22T13:40:11;4.55;;;2.85;;
70320;SDS011;61127;55.826;37.046;2022-07-22T13:42:39;2.47;;;2.38;;
70320;SDS011;61127;55.826;37.046;2022-07-22T13:45:07;3.08;;;2.60;;
70320;SDS011;61127;55.826;37.046;2022-07-22T13:47:35;2.80;;;2.47;;
70320;SDS011;61127;55.826;37.046;2022-07-22T13:50:02;3.83;;;2.40;;
70320;SDS011;61127;55.826;37.046;2022-07-22T13:52:29;2.77;;;2.53;;
70320;SDS011;61127;55.826;37.046;2022-07-22T13:54:55;2.47;;;2.20;;
70320;SDS011;61127;55.826;37.046;2022-07-22T13:57:21;3.55;;;2.00;;
70320;SDS011;61127;55.826;37.046;2022-07-22T13:59:47;2.40;;;2.20;;
70320;SDS011;61127;55.826;37.046;2022-07-22T14:02:14;3.13;;;2.20;;
70320;SDS011;61127;55.826;37.046;2022-07-22T14:04:41;3.43;;;2.30;;
70320;SDS011;61127;55.826;37.046;2022-07-22T14:07:07;2.88;;;2.00;;
70320;SDS011;61127;55.826;37.046;2022-07-22T14:09:33;2.17;;;1.83;;
70320;SDS011;61127;55.826;37.046;2022-07-22T14:11:59;2.53;;;1.90;;
70320;SDS011;61127;55.826;37.046;2022-07-22T14:14:25;6.10;;;2.10;;
70320;SDS011;61127;55.826;37.046;2022-07-22T14:16:51;2.05;;;1.70;;
70320;SDS011;61127;55.826;37.046;2022-07-22T14:19:17;1.98;;;1.70;;
70320;SDS011;61127;55.826;37.046;2022-07-22T14:21:44;3.08;;;1.70;;
70320;SDS011;61127;55.826;37.046;2022-07-22T14:24:11;6.37;;;2.13;;
70320;SDS011;61127;55.826;37.046;2022-07-22T14:26:38;2.25;;;1.90;;
70320;SDS011;61127;55.826;37.046;2022-07-22T14:29:05;2.95;;;2.03;;
70320;SDS011;61127;55.826;37.046;2022-07-22T14:31:32;4.85;;;1.98;;
70320;SDS011;61127;55.826;37.046;2022-07-22T14:33:59;2.63;;;1.83;;
70320;SDS011;61127;55.826;37.046;2022-07-22T14:36:26;3.50;;;1.80;;
70320;SDS011;61127;55.826;37.046;2022-07-22T14:38:52;1.63;;;1.52;;
70320;SDS011;61127;55.826;37.046;2022-07-22T14:41:21;2.83;;;1.60;;
70320;SDS011;61127;55.826;37.046;2022-07-22T14:43:49;4.10;;;1.73;;
70320;SDS011;61127;55.826;37.046;2022-07-22T14:46:15;2.90;;;1.60;;
70320;SDS011;61127;55.826;37.046;2022-07-22T14:48:41;3.83;;;1.80;;
70320;SDS011;61127;55.826;37.046;2022-07-22T14:51:07;1.92;;;1.60;;
70320;SDS011;61127;55.826;37.046;2022-07-22T14:53:34;2.55;;;1.90;;
70320;SDS011;61127;55.826;37.046;2022-07-22T14:56:00;3.30;;;1.85;;
70320;SDS011;61127;55.826;37.046;2022-07-22T14:58:45;2.28;;;1.65;;
70320;SDS011;61127;55.826;37.046;2022-07-22T15:01:11;1.70;;;1.60;;
70320;SDS011;61127;55.826;37.046;2022-07-22T15:03:38;3.20;;;1.75;;
70320;SDS011;61127;55.826;37.046;2022-07-22T15:06:04;1.92;;;1.77;;
70320;SDS011;61127;55.826;37.046;2022-07-22T15:08:30;3.50;;;1.92;;
70320;SDS011;61127;55.826;37.046;2022-07-22T15:10:56;1.90;;;1.70;;
70320;SDS011;61127;55.826;37.046;2022-07-22T15:13:25;1.83;;;1.70;;
70320;SDS011;61127;55.826;37.046;2022-07-22T15:15:51;2.05;;;1.75;;
70320;SDS011;61127;55.826;37.046;2022-07-22T15:18:17;1.92;;;1.80;;
70320;SDS011;61127;55.826;37.046;2022-07-22T15:20:43;3.78;;;1.95;;